createdAt,value
2023-05-05T00:01:00.926Z,335.30
2023-05-05T00:03:28.756Z,329.35
2023-05-05T00:05:56.983Z,330.25
2023-05-05T00:08:24.661Z,335.70
2023-05-05T00:10:54.967Z,332.45
2023-05-05T00:13:24.650Z,314.48
2023-05-05T00:15:54.317Z,315.58
2023-05-05T00:18:22.575Z,317.38
2023-05-05T00:20:50.488Z,314.70
2023-05-05T00:23:20.684Z,315.77
2023-05-05T00:25:48.538Z,323.77
2023-05-05T00:28:16.441Z,338.95
2023-05-05T00:30:45.411Z,319.95
2023-05-05T00:33:13.517Z,308.40
2023-05-05T00:35:41.306Z,316.00
2023-05-05T00:38:10.022Z,314.90
2023-05-05T00:40:37.875Z,320.23
2023-05-05T00:43:06.032Z,315.75
2023-05-05T00:45:33.719Z,308.42
2023-05-05T00:48:02.859Z,334.13
2023-05-05T00:50:32.016Z,316.98
2023-05-05T00:53:03.199Z,336.67
2023-05-05T00:55:31.563Z,321.08
2023-05-05T00:57:59.805Z,326.70
2023-05-05T01:00:28.714Z,316.83
2023-05-05T01:02:56.728Z,325.02
2023-05-05T01:05:29.030Z,330.83
2023-05-05T01:08:09.296Z,330.55
2023-05-05T01:10:40.371Z,316.02
2023-05-05T01:13:20.150Z,328.60
2023-05-05T01:15:53.620Z,329.85
2023-05-05T01:18:32.427Z,318.30
2023-05-05T01:21:10.968Z,340.60
2023-05-05T01:24:03.088Z,311.77
2023-05-05T01:26:50.610Z,321.75
2023-05-05T01:29:39.944Z,312.05
2023-05-05T01:32:12.040Z,312.27
2023-05-05T01:34:46.065Z,325.33
2023-05-05T01:37:20.174Z,342.27
2023-05-05T01:39:52.377Z,341.35
2023-05-05T01:42:23.637Z,328.58
2023-05-05T01:44:54.156Z,314.70
2023-05-05T01:47:24.606Z,306.67
2023-05-05T01:49:53.585Z,331.75
2023-05-05T01:52:23.651Z,332.90
2023-05-05T01:54:53.743Z,328.73
2023-05-05T01:57:22.349Z,315.10
2023-05-05T01:59:52.036Z,331.73
2023-05-05T02:02:21.520Z,322.08
2023-05-05T02:04:53.286Z,345.42
2023-05-05T02:07:22.261Z,338.58
2023-05-05T02:09:49.920Z,344.90
2023-05-05T02:12:20.254Z,331.00
2023-05-05T02:14:48.923Z,334.88
2023-05-05T02:17:18.312Z,325.98
2023-05-05T02:19:48.615Z,326.58
2023-05-05T02:22:17.556Z,334.55
2023-05-05T02:24:45.876Z,355.35
2023-05-05T02:27:18.703Z,335.23
2023-05-05T02:29:50.252Z,355.05
2023-05-05T02:32:21.436Z,340.80
2023-05-05T02:34:51.950Z,340.08
2023-05-05T02:37:25.499Z,342.55
2023-05-05T02:40:01.480Z,356.15
2023-05-05T02:42:36.080Z,348.52
2023-05-05T02:45:11.287Z,370.63
2023-05-05T02:47:42.449Z,344.00
2023-05-05T02:50:11.762Z,358.95
2023-05-05T02:52:47.166Z,342.13
2023-05-05T02:55:16.830Z,361.85
2023-05-05T02:57:50.891Z,355.00
2023-05-05T03:00:25.435Z,321.77
2023-05-05T03:03:05.479Z,344.40
2023-05-05T03:05:44.221Z,335.90
2023-05-05T03:08:19.085Z,344.52
2023-05-05T03:10:52.793Z,354.05
2023-05-05T03:13:24.483Z,342.25
2023-05-05T03:15:54.196Z,342.88
2023-05-05T03:18:26.074Z,350.10
2023-05-05T03:21:08.810Z,347.55
2023-05-05T03:23:40.744Z,347.33
2023-05-05T03:26:18.578Z,321.10
2023-05-05T03:28:46.319Z,352.38
2023-05-05T03:31:25.878Z,347.35
2023-05-05T03:33:57.364Z,341.88
2023-05-05T03:36:29.568Z,359.13
2023-05-05T03:38:59.837Z,347.83
2023-05-05T03:41:32.218Z,328.83
2023-05-05T03:44:00.707Z,340.17
2023-05-05T03:46:29.134Z,347.05
2023-05-05T03:48:57.798Z,331.85
2023-05-05T03:51:27.997Z,333.27
2023-05-05T03:53:56.262Z,328.88
2023-05-05T03:56:25.272Z,333.80
2023-05-05T03:58:53.304Z,329.50
2023-05-05T04:01:23.525Z,328.33
2023-05-05T04:03:51.823Z,306.30
2023-05-05T04:06:20.851Z,334.75
2023-05-05T04:08:49.125Z,318.05
2023-05-05T04:11:17.112Z,325.85
2023-05-05T04:13:47.185Z,327.15
2023-05-05T04:16:14.965Z,307.23
2023-05-05T04:18:43.909Z,326.23
2023-05-05T04:21:11.564Z,316.52
2023-05-05T04:23:40.047Z,319.00
2023-05-05T04:26:08.308Z,302.35
2023-05-05T04:28:36.637Z,311.15
2023-05-05T04:31:06.150Z,308.23
2023-05-05T04:33:37.766Z,298.02
2023-05-05T04:36:06.281Z,297.02
2023-05-05T04:38:34.902Z,302.83
2023-05-05T04:41:06.146Z,298.05
2023-05-05T04:43:34.568Z,314.70
2023-05-05T04:46:02.752Z,308.02
2023-05-05T04:48:36.981Z,287.73
2023-05-05T04:51:06.312Z,276.05
2023-05-05T04:53:34.081Z,279.02
2023-05-05T04:56:03.376Z,292.80
2023-05-05T04:58:31.625Z,294.23
2023-05-05T05:00:59.636Z,284.92
2023-05-05T05:03:27.971Z,282.17
2023-05-05T05:05:57.012Z,271.40
2023-05-05T05:08:25.125Z,290.27
2023-05-05T05:10:53.179Z,278.75
2023-05-05T05:13:20.876Z,258.00
2023-05-05T05:15:48.582Z,290.38
2023-05-05T05:18:16.599Z,265.17
2023-05-05T05:20:44.704Z,276.95
2023-05-05T05:23:13.738Z,269.52
2023-05-05T05:25:44.903Z,283.58
2023-05-05T05:28:14.359Z,275.35
2023-05-05T05:30:56.097Z,276.75
2023-05-05T05:33:24.196Z,282.92
2023-05-05T05:35:54.084Z,290.45
2023-05-05T05:38:23.885Z,285.48
2023-05-05T05:40:55.383Z,298.73
2023-05-05T05:43:24.225Z,296.02
2023-05-05T05:45:51.983Z,300.65
2023-05-05T05:48:21.404Z,316.10
2023-05-05T05:50:49.077Z,315.42
2023-05-05T05:53:16.735Z,305.90
2023-05-05T05:55:46.803Z,312.75
2023-05-05T05:58:16.722Z,319.88
2023-05-05T06:00:44.491Z,319.33
2023-05-05T06:03:13.132Z,338.67
2023-05-05T06:05:40.852Z,336.50
2023-05-05T06:08:09.092Z,346.92
2023-05-05T06:10:42.306Z,337.20
2023-05-05T06:13:16.875Z,334.95
2023-05-05T06:15:48.350Z,353.98
2023-05-05T06:18:16.934Z,361.17
2023-05-05T06:20:44.816Z,343.98
2023-05-05T06:23:14.843Z,359.75
2023-05-05T06:25:47.948Z,374.70
2023-05-05T06:28:17.595Z,363.08
2023-05-05T06:30:45.194Z,350.92
2023-05-05T06:33:13.088Z,345.40
2023-05-05T06:35:41.262Z,356.77
2023-05-05T06:38:09.674Z,328.23
2023-05-05T06:40:37.392Z,324.83
2023-05-05T06:43:05.273Z,338.15
2023-05-05T06:45:39.091Z,308.88
2023-05-05T06:48:06.879Z,316.00
2023-05-05T06:50:34.523Z,334.55
2023-05-05T06:53:02.499Z,320.13
2023-05-05T06:55:30.335Z,312.10
2023-05-05T06:57:58.279Z,295.83
2023-05-05T07:00:26.090Z,295.05
2023-05-05T07:02:55.388Z,295.35
2023-05-05T07:05:23.857Z,307.50
2023-05-05T07:07:52.906Z,303.83
2023-05-05T07:10:21.352Z,325.20
2023-05-05T07:12:49.762Z,303.30
2023-05-05T07:15:27.353Z,328.95
2023-05-05T07:17:58.224Z,305.25
2023-05-05T07:20:26.375Z,307.13
2023-05-05T07:22:54.058Z,323.55
2023-05-05T07:25:23.048Z,291.98
2023-05-05T07:27:51.084Z,285.67
2023-05-05T07:30:19.521Z,280.10
2023-05-05T07:32:47.920Z,252.57
2023-05-05T07:35:17.132Z,294.33
2023-05-05T07:37:45.456Z,254.68
2023-05-05T07:40:13.841Z,201.18
2023-05-05T07:42:41.800Z,219.05
2023-05-05T07:45:10.011Z,224.15
2023-05-05T07:47:38.225Z,250.43
2023-05-05T07:50:07.576Z,242.90
2023-05-05T07:52:46.738Z,234.32
2023-05-05T07:55:19.838Z,258.85
2023-05-05T07:57:48.187Z,225.18
2023-05-05T08:00:19.523Z,247.45
2023-05-05T08:02:48.110Z,238.20
2023-05-05T08:05:16.419Z,234.82
2023-05-05T08:07:45.694Z,216.40
2023-05-05T08:10:14.429Z,234.63
2023-05-05T08:12:42.646Z,231.13
2023-05-05T08:15:11.199Z,241.93
2023-05-05T08:17:49.834Z,239.85
2023-05-05T08:20:17.945Z,257.33
2023-05-05T08:22:47.466Z,261.27
2023-05-05T08:25:15.600Z,246.00
2023-05-05T08:27:44.120Z,249.95
2023-05-05T08:30:12.524Z,265.48
2023-05-05T08:32:40.645Z,271.30
2023-05-05T08:35:09.087Z,290.50
2023-05-05T08:37:37.506Z,264.33
2023-05-05T08:40:07.880Z,260.40
2023-05-05T08:42:38.696Z,251.10
2023-05-05T08:45:09.575Z,255.23
2023-05-05T08:47:39.129Z,257.63
2023-05-05T08:50:10.905Z,270.17
2023-05-05T08:52:41.507Z,260.98
2023-05-05T08:55:15.841Z,250.27
2023-05-05T08:57:51.503Z,270.00
2023-05-05T09:00:20.077Z,259.98
2023-05-05T09:02:48.984Z,256.30
2023-05-05T09:05:17.010Z,256.45
2023-05-05T09:07:45.144Z,238.95
2023-05-05T09:10:14.199Z,259.52
2023-05-05T09:12:42.322Z,262.40
2023-05-05T09:15:11.557Z,259.50
2023-05-05T09:17:39.656Z,239.27
2023-05-05T09:20:09.082Z,255.75
2023-05-05T09:22:38.238Z,235.45
2023-05-05T09:25:06.972Z,255.75
2023-05-05T09:27:41.477Z,236.95
2023-05-05T09:30:10.809Z,244.52
2023-05-05T09:32:46.891Z,257.35
2023-05-05T09:35:14.798Z,242.05
2023-05-05T09:37:42.894Z,253.43
2023-05-05T09:40:11.773Z,267.52
2023-05-05T09:42:41.558Z,288.45
2023-05-05T09:45:27.224Z,266.33
2023-05-05T09:47:59.526Z,273.85
2023-05-05T09:50:30.721Z,276.77
2023-05-05T09:53:00.731Z,285.10
2023-05-05T09:55:30.807Z,305.38
2023-05-05T09:58:21.227Z,281.75
2023-05-05T10:00:48.899Z,279.23
2023-05-05T10:03:17.046Z,307.20
2023-05-05T10:05:52.127Z,309.27
2023-05-05T10:08:22.670Z,322.00
2023-05-05T10:10:55.343Z,339.33
2023-05-05T10:13:25.778Z,324.42
2023-05-05T10:15:55.479Z,339.85
2023-05-05T10:18:24.781Z,318.70
2023-05-05T10:20:58.869Z,333.52
2023-05-05T10:23:34.017Z,335.35
2023-05-05T10:26:04.273Z,327.40
2023-05-05T10:28:44.975Z,331.98
2023-05-05T10:31:25.698Z,321.55
2023-05-05T10:34:00.322Z,324.13
2023-05-05T10:36:29.260Z,336.52
2023-05-05T10:38:58.219Z,304.38
2023-05-05T10:41:26.586Z,320.75
2023-05-05T10:43:57.375Z,302.70
2023-05-05T10:46:26.330Z,291.05
2023-05-05T10:49:01.047Z,310.58
2023-05-05T10:51:40.950Z,310.15
2023-05-05T10:54:15.084Z,312.05
2023-05-05T10:56:43.819Z,302.58
2023-05-05T10:59:47.790Z,292.58
2023-05-05T11:02:23.648Z,291.40
2023-05-05T11:05:05.719Z,293.25
2023-05-05T11:07:34.400Z,290.23
2023-05-05T11:10:02.972Z,283.98
2023-05-05T11:12:32.006Z,303.00
2023-05-05T11:15:38.724Z,298.73
2023-05-05T11:18:08.188Z,295.02
2023-05-05T11:21:05.354Z,311.65
2023-05-05T11:23:33.044Z,302.58
2023-05-05T11:26:00.897Z,311.20
2023-05-05T11:28:31.426Z,305.10
2023-05-05T11:31:28.091Z,320.73
2023-05-05T11:33:55.904Z,302.35
2023-05-05T11:36:43.387Z,297.02
2023-05-05T11:39:22.422Z,307.33
2023-05-05T11:42:06.600Z,298.33
2023-05-05T11:44:37.437Z,306.63
2023-05-05T11:47:35.135Z,318.73
2023-05-05T11:50:21.308Z,310.73
2023-05-05T11:52:50.270Z,323.80
2023-05-05T11:55:23.030Z,315.50
2023-05-05T11:57:51.481Z,327.95
2023-05-05T12:00:19.771Z,301.73
2023-05-05T12:02:57.326Z,314.95
2023-05-05T12:05:25.141Z,333.30
2023-05-05T12:07:58.410Z,323.92
2023-05-05T12:10:26.288Z,336.52
2023-05-05T12:12:55.475Z,323.55
2023-05-05T12:15:31.042Z,316.27
2023-05-05T12:18:02.328Z,310.27
2023-05-05T12:20:33.336Z,335.48
2023-05-05T12:23:02.735Z,328.67
2023-05-05T12:25:37.164Z,332.13
2023-05-05T12:28:06.038Z,327.40
2023-05-05T12:30:34.228Z,318.70
2023-05-05T12:33:04.572Z,333.13
2023-05-05T12:35:33.349Z,313.35
2023-05-05T12:38:01.080Z,319.48
2023-05-05T12:40:45.855Z,311.42
2023-05-05T12:43:30.528Z,302.00
2023-05-05T12:46:06.969Z,320.40
2023-05-05T12:48:37.896Z,309.73
2023-05-05T12:51:20.109Z,296.63
2023-05-05T12:53:49.101Z,295.45
2023-05-05T12:56:37.042Z,308.55
2023-05-05T12:59:06.894Z,297.92
2023-05-05T13:01:34.929Z,288.00
2023-05-05T13:04:12.113Z,297.55
2023-05-05T13:06:41.236Z,291.35
2023-05-05T13:09:09.939Z,286.70
2023-05-05T13:11:38.686Z,309.52
2023-05-05T13:14:07.767Z,291.02
2023-05-05T13:16:36.093Z,295.98
2023-05-05T13:19:03.747Z,312.33
2023-05-05T13:21:33.009Z,302.83
2023-05-05T13:24:16.244Z,304.27
2023-05-05T13:26:49.959Z,295.15
2023-05-05T13:29:17.943Z,282.08
2023-05-05T13:31:46.477Z,289.38
2023-05-05T13:34:14.162Z,295.83
2023-05-05T13:36:43.448Z,300.90
2023-05-05T13:39:11.236Z,296.80
2023-05-05T13:41:39.125Z,299.42
2023-05-05T13:44:06.747Z,310.45
2023-05-05T13:46:34.663Z,300.10
2023-05-05T13:49:02.319Z,300.77
2023-05-05T13:51:30.661Z,292.33
2023-05-05T13:53:59.630Z,304.60
2023-05-05T13:56:27.910Z,291.35
2023-05-05T13:58:55.511Z,297.38
2023-05-05T14:01:23.469Z,295.42
2023-05-05T14:03:51.213Z,276.00
2023-05-05T14:06:19.058Z,290.30
2023-05-05T14:08:47.073Z,301.85
2023-05-05T14:11:18.274Z,267.85
2023-05-05T14:13:47.492Z,289.02
2023-05-05T14:16:15.661Z,291.88
2023-05-05T14:18:43.441Z,299.48
2023-05-05T14:21:11.377Z,278.52
2023-05-05T14:23:39.026Z,297.50
2023-05-05T14:26:09.111Z,294.23
2023-05-05T14:28:38.229Z,285.70
2023-05-05T14:31:06.317Z,285.55
2023-05-05T14:33:33.930Z,277.15
2023-05-05T14:36:01.780Z,276.92
2023-05-05T14:38:29.607Z,295.70
2023-05-05T14:40:57.836Z,290.17
2023-05-05T14:43:25.550Z,278.65
2023-05-05T14:45:54.681Z,283.15
2023-05-05T14:48:22.737Z,297.02
2023-05-05T14:50:50.499Z,284.23
2023-05-05T14:53:18.925Z,280.73
2023-05-05T14:55:46.633Z,279.33
2023-05-05T14:58:14.757Z,291.77
2023-05-05T15:00:42.394Z,278.95
2023-05-05T15:03:11.690Z,283.98
2023-05-05T15:05:39.387Z,285.02
2023-05-05T15:08:07.795Z,284.85
2023-05-05T15:10:35.441Z,278.40
2023-05-05T15:13:03.360Z,275.15
2023-05-05T15:15:31.158Z,266.63
2023-05-05T15:17:59.123Z,272.42
2023-05-05T15:20:28.391Z,284.90
2023-05-05T15:22:56.339Z,266.48
2023-05-05T15:25:23.975Z,267.70
2023-05-05T15:27:52.161Z,280.88
2023-05-05T15:30:19.758Z,285.35
2023-05-05T15:32:48.079Z,269.33
2023-05-05T15:35:15.786Z,264.00
2023-05-05T15:37:45.056Z,245.00
2023-05-05T15:40:13.200Z,277.73
2023-05-05T15:42:41.255Z,316.08
2023-05-05T15:45:12.017Z,342.08
2023-05-05T15:47:39.977Z,371.45
2023-05-05T15:50:08.917Z,413.98
2023-05-05T15:52:36.892Z,455.60
2023-05-05T15:55:08.125Z,481.08
2023-05-05T15:57:36.533Z,498.80
2023-05-05T16:00:04.641Z,496.35
2023-05-05T16:02:35.427Z,502.33
2023-05-05T16:05:03.177Z,497.50
2023-05-05T16:07:31.122Z,457.35
2023-05-05T16:09:58.708Z,448.00
2023-05-05T16:12:27.934Z,428.65
2023-05-05T16:14:55.587Z,418.55
2023-05-05T16:17:23.504Z,416.75
2023-05-05T16:19:51.319Z,409.73
2023-05-05T16:22:20.710Z,487.52
2023-05-05T16:24:48.658Z,523.70
2023-05-05T16:27:16.427Z,509.15
2023-05-05T16:29:45.729Z,482.90
2023-05-05T16:32:13.331Z,476.20
2023-05-05T16:34:41.045Z,480.25
2023-05-05T16:37:08.660Z,509.55
2023-05-05T16:39:40.262Z,494.33
2023-05-05T16:42:08.153Z,464.58
2023-05-05T16:44:36.120Z,482.65
2023-05-05T16:47:05.178Z,489.58
2023-05-05T16:49:33.113Z,475.15
2023-05-05T16:52:00.700Z,490.52
2023-05-05T16:54:28.465Z,459.42
2023-05-05T16:56:56.088Z,465.83
2023-05-05T16:59:23.943Z,459.38
2023-05-05T17:01:51.618Z,462.30
2023-05-05T17:04:20.755Z,474.85
2023-05-05T17:06:48.336Z,454.50
2023-05-05T17:09:16.187Z,442.63
2023-05-05T17:11:43.781Z,472.17
2023-05-05T17:14:11.544Z,459.02
2023-05-05T17:16:39.327Z,483.23
2023-05-05T17:19:07.103Z,461.88
2023-05-05T17:21:36.191Z,450.77
2023-05-05T17:24:04.109Z,476.17
2023-05-05T17:26:31.787Z,455.38
2023-05-05T17:28:59.578Z,444.85
2023-05-05T17:31:27.226Z,456.75
2023-05-05T17:33:55.155Z,465.77
2023-05-05T17:36:22.908Z,465.52
2023-05-05T17:38:52.092Z,461.30
2023-05-05T17:41:19.713Z,479.20
2023-05-05T17:43:48.429Z,475.08
2023-05-05T17:46:16.386Z,458.55
2023-05-05T17:48:44.211Z,489.42
2023-05-05T17:51:12.126Z,437.63
2023-05-05T17:53:39.881Z,460.60
2023-05-05T17:56:09.335Z,451.15
2023-05-05T17:58:36.990Z,458.83
2023-05-05T18:01:05.011Z,480.48
2023-05-05T18:03:32.873Z,447.45
2023-05-05T18:06:01.441Z,477.90
2023-05-05T18:08:29.060Z,454.25
2023-05-05T18:10:57.150Z,462.40
2023-05-05T18:13:26.138Z,455.25
2023-05-05T18:15:54.155Z,468.90
2023-05-05T18:18:22.129Z,456.10
2023-05-05T18:20:50.180Z,481.27
2023-05-05T18:23:17.783Z,462.95
2023-05-05T18:25:45.429Z,455.77
2023-05-05T18:28:13.204Z,469.98
2023-05-05T18:30:42.176Z,433.27
2023-05-05T18:33:09.927Z,459.95
2023-05-05T18:35:37.937Z,459.95
2023-05-05T18:38:05.752Z,466.17
2023-05-05T18:40:33.604Z,441.58
2023-05-05T18:43:01.192Z,445.00
2023-05-05T18:45:29.088Z,462.92
2023-05-05T18:47:58.115Z,474.35
2023-05-05T18:50:26.093Z,454.55
2023-05-05T18:52:53.777Z,478.13
2023-05-05T18:55:22.161Z,435.63
2023-05-05T18:57:50.014Z,462.88
2023-05-05T19:00:19.946Z,444.75
2023-05-05T19:02:47.604Z,457.08
2023-05-05T19:05:16.724Z,454.08
2023-05-05T19:07:45.128Z,443.65
2023-05-05T19:10:13.138Z,441.30
2023-05-05T19:12:40.764Z,445.88
2023-05-05T19:15:09.635Z,439.92
2023-05-05T19:17:37.697Z,464.73
2023-05-05T19:20:06.250Z,461.58
2023-05-05T19:22:35.579Z,468.55
2023-05-05T19:25:03.616Z,442.35
2023-05-05T19:27:33.973Z,451.65
2023-05-05T19:30:01.618Z,453.77
2023-05-05T19:32:29.686Z,447.50
2023-05-05T19:34:57.730Z,449.02
2023-05-05T19:37:25.887Z,446.15
2023-05-05T19:39:54.850Z,454.85
2023-05-05T19:42:22.755Z,458.35
2023-05-05T19:44:50.745Z,445.52
2023-05-05T19:47:19.119Z,436.55
2023-05-05T19:49:46.719Z,456.42
2023-05-05T19:52:14.399Z,434.63
2023-05-05T19:54:43.338Z,450.95
2023-05-05T19:57:12.873Z,438.63
2023-05-05T19:59:41.593Z,446.45
2023-05-05T20:02:09.708Z,415.73
2023-05-05T20:04:37.373Z,449.80
2023-05-05T20:07:05.104Z,452.75
2023-05-05T20:09:32.755Z,431.77
2023-05-05T20:12:02.075Z,435.88
2023-05-05T20:14:31.494Z,447.45
2023-05-05T20:16:59.264Z,444.10
2023-05-05T20:19:26.849Z,445.48
2023-05-05T20:21:54.717Z,435.65
2023-05-05T20:24:22.344Z,433.02
2023-05-05T20:26:50.514Z,422.90
2023-05-05T20:29:19.567Z,436.08
2023-05-05T20:31:49.082Z,441.88
2023-05-05T20:34:16.824Z,458.05
2023-05-05T20:36:44.721Z,433.92
2023-05-05T20:39:15.540Z,453.48
2023-05-05T20:41:43.881Z,457.90
2023-05-05T20:44:11.463Z,449.63
2023-05-05T20:46:39.426Z,438.73
2023-05-05T20:49:08.449Z,458.60
2023-05-05T20:51:36.069Z,449.95
2023-05-05T20:54:04.267Z,450.83
2023-05-05T20:56:31.933Z,430.05
2023-05-05T20:58:59.809Z,435.70
2023-05-05T21:01:28.391Z,433.42
2023-05-05T21:03:56.280Z,408.95
2023-05-05T21:06:25.337Z,441.30
2023-05-05T21:08:53.374Z,438.38
2023-05-05T21:11:21.428Z,442.00
2023-05-05T21:13:49.253Z,422.77
2023-05-05T21:16:16.926Z,426.88
2023-05-05T21:18:46.887Z,422.00
2023-05-05T21:21:14.512Z,437.30
2023-05-05T21:23:43.609Z,428.90
2023-05-05T21:26:11.225Z,405.02
2023-05-05T21:28:39.114Z,441.88
2023-05-05T21:31:21.326Z,431.77
2023-05-05T21:33:50.195Z,423.65
2023-05-05T21:36:19.084Z,426.25
2023-05-05T21:38:48.675Z,405.85
2023-05-05T21:41:16.665Z,429.75
2023-05-05T21:43:44.780Z,432.73
2023-05-05T21:46:12.825Z,408.38
2023-05-05T21:48:41.355Z,430.60
2023-05-05T21:51:09.079Z,431.67
2023-05-05T21:53:37.924Z,412.77
2023-05-05T21:56:07.739Z,423.00
2023-05-05T21:58:35.684Z,428.83
2023-05-05T22:01:03.480Z,421.05
2023-05-05T22:03:32.080Z,426.55
2023-05-05T22:05:59.818Z,430.25
2023-05-05T22:08:27.734Z,445.17
2023-05-05T22:10:55.331Z,418.75
2023-05-05T22:13:24.601Z,422.13
2023-05-05T22:15:52.385Z,409.17
2023-05-05T22:18:20.376Z,428.92
2023-05-05T22:20:48.012Z,417.23
2023-05-05T22:23:16.351Z,418.50
2023-05-05T22:25:44.546Z,434.52
2023-05-05T22:28:12.674Z,424.10
2023-05-05T22:30:41.885Z,425.27
2023-05-05T22:33:09.829Z,439.83
2023-05-05T22:35:38.080Z,437.25
2023-05-05T22:38:06.196Z,420.77
2023-05-05T22:40:33.875Z,426.02
2023-05-05T22:43:01.439Z,437.27
2023-05-05T22:45:29.492Z,428.50
2023-05-05T22:47:58.506Z,433.52
2023-05-05T22:50:26.587Z,427.08
2023-05-05T22:52:54.322Z,434.73
2023-05-05T22:55:24.860Z,406.50
2023-05-05T22:57:53.181Z,427.30
2023-05-05T23:00:21.330Z,441.65
2023-05-05T23:02:49.029Z,416.05
2023-05-05T23:05:18.493Z,440.67
2023-05-05T23:07:46.154Z,416.67
2023-05-05T23:10:14.015Z,418.38
2023-05-05T23:12:41.729Z,430.33
2023-05-05T23:15:11.008Z,421.52
2023-05-05T23:17:38.914Z,428.40
2023-05-05T23:20:10.262Z,408.00
2023-05-05T23:22:39.179Z,426.05
2023-05-05T23:25:08.103Z,427.10
2023-05-05T23:27:35.980Z,407.85
2023-05-05T23:30:03.870Z,415.80
2023-05-05T23:32:31.486Z,413.40
2023-05-05T23:34:59.604Z,420.17
2023-05-05T23:37:27.239Z,407.02
2023-05-05T23:39:57.476Z,416.65
2023-05-05T23:42:25.441Z,416.92
2023-05-05T23:44:53.255Z,420.77
2023-05-05T23:47:20.851Z,419.30
2023-05-05T23:49:48.743Z,418.30
2023-05-05T23:52:16.462Z,420.08
2023-05-05T23:54:45.465Z,408.13
2023-05-05T23:57:14.401Z,416.02
2023-05-05T23:59:42.478Z,423.27
